Allegre, Kentucky
Current Conditions -  °F | °C
As of 8:58 PM on Friday 21 Nov 2014 (Local Time) from KHOP Reporting Station
Overcast Overcast  
Wind Chill: 41°   Ceiling: 9000
Heat Index: 44°   Visibility: 10mi
Dew Point: 25°   Wind: 6mph
Humidity: 48%   Direction: 90°E
Pressure: 30.34"   Gusts: NA
Location:  36.93°N, 87.22°W
Report Text: KHOP 220258Z AUTO 09005KT 10SM SCT065 OVC090 07/M04 A3034 RMK AO2 SLP280 T00671037 58003
Loading
Personal Weather Stations






























Interactive Weather Map New forecast layout! Learn more

10-Day Weather Forecast

Advertisements
Track Severe Weather on mobile